DNAA/ABV METAR and TAF weather

Enter ICAO airport designator
Station Type Date Time Source
DNAA METAR 2019/08/24 09:00 UTC NOAA

DNAA 240900Z 23004KT 9999 -DZ BKN009 25/21 Q1018 NOSIG


Station Type Date Time Source
DNAA Decoded METAR 2019/08/24 09:00 UTC NOAA

Station name not available
Aug 24, 2019 - 05:00 AM EDT / 2019.08.24 0900 UTC
Wind: from the SW (230 degrees) at 5 MPH (4 KT):0
Visibility: greater than 7 mile(s):0
Sky conditions: mostly cloudy
Weather: light drizzle
Temperature: 77 F (25 C)
Dew Point: 69 F (21 C)
Relative Humidity: 78%
Pressure (altimeter): 30.06 in. Hg (1018 hPa)
ob: DNAA 240900Z 23004KT 9999 -DZ BKN009 25/21 Q1018 NOSIG
cycle: 9

Station Type Date Time Source
DNAA TAF 2019/08/24 06:24 UTC NOAA

TAF TAF DNAA 240500Z 2406/2512 VRB02KT 9999 BKN008 PROB30
TEMPO 2406/2408 5000 BR BKN008
BECMG 2408/2410 25010KT BKN010 PROB30
TEMPO 2415/2420 12015KT 5000 -TSRA BKN008 FEW018CB

Example: see airport list